All
Cowell Airport (Cowell, South Australia) YCWL Weather
There is no TAF data available at YCWL or any nearby airports.
There is no METAR data available at YCWL. Showing METAR data for YCEE (22 mi W).
Recent CVC METAR history (no data for YCWL)
| Date | Time (ACST) | Flight Rules | Wind Dir. | Speed | Type | Height AGL (ft) | Visibility | Temp (°C) | Temp (°F) | Dew Point (°C) | Dew Point (°F) | Rel. Humid. | Pressure | Density Altitude | Remarks |
|---|---|---|---|---|---|---|---|---|---|---|---|---|---|---|---|
| 05-May | 09:30PM | n/a | Calm | Missing | 13° | 55° | 9° | 48° | 77% | 1025 mb | 1 ft | ||||
| 05-May | 08:30PM | n/a | Calm | Missing | 15° | 59° | 10° | 50° | 72% | 1025 mb | 241 ft | ||||
| 05-May | 07:30PM | n/a | Calm | Missing | 15° | 59° | 9° | 48° | 67% | 1025 mb | 241 ft | ||||
| 05-May | 06:30PM | n/a | Calm | Missing | 15° | 59° | 9° | 48° | 67% | 1024 mb | 270 ft | ||||
| 05-May | 05:30PM | n/a | 140° | 5 kt | Missing | 16° | 60° | 9° | 48° | 63% | 1024 mb | 390 ft | |||
| 05-May | 04:30PM | n/a | 140° | 7 kt | Missing | 16° | 60° | 9° | 48° | 63% | 1023 mb | 420 ft | |||
| 05-May | 03:30PM | n/a | 170° | 9 kt | Missing | 17° | 62° | 9° | 48° | 59% | 1023 mb | 540 ft | |||
| 05-May | 02:30PM | n/a | 220° | 8 kt | Missing | 18° | 64° | 7° | 44° | 49% | 1023 mb | 660 ft | |||
| 05-May | 01:30PM | n/a | 200° | 6 kt | Missing | 18° | 64° | 8° | 46° | 52% | 1023 mb | 660 ft | |||
| 05-May | 12:30PM | n/a | 260° | 6 kt | Missing | 17° | 62° | 9° | 48° | 59% | 1024 mb | 510 ft | |||
| 05-May | 11:30AM | n/a | 220° | 8 kt | Missing | 16° | 60° | 9° | 48° | 63% | 1024 mb | 390 ft | |||
| 05-May | 10:30AM | n/a | 210° | 7 kt | Missing | 15° | 59° | 8° | 46° | 63% | 1024 mb | 270 ft | |||
| 05-May | 09:30AM | n/a | 260° | 8 kt | Missing | 14° | 57° | 10° | 50° | 77% | 1024 mb | 150 ft | |||
| 05-May | 08:30AM | n/a | 270° | 5 kt | Missing | 12° | 53° | 11° | 51° | 94% | 1024 mb | -90 ft | |||
| 05-May | 07:30AM | n/a | 290° | 6 kt | Missing | 11° | 51° | 10° | 50° | 94% | 1023 mb | -180 ft | |||
| 05-May | 06:30AM | n/a | 290° | 7 kt | Missing | 11° | 51° | 10° | 50° | 94% | 1023 mb | -180 ft | |||
| 05-May | 05:30AM | n/a | 270° | 7 kt | Missing | 11° | 51° | 10° | 50° | 94% | 1023 mb | -180 ft | |||
| 05-May | 04:30AM | n/a | 270° | 8 kt | Missing | 12° | 53° | 11° | 51° | 94% | 1022 mb | -31 ft | |||
| 05-May | 03:30AM | n/a | 290° | 7 kt | Missing | 11° | 51° | 10° | 50° | 94% | 1022 mb | -151 ft | |||
| 05-May | 02:30AM | n/a | 290° | 7 kt | Missing | 11° | 51° | 10° | 50° | 94% | 1022 mb | -151 ft | |||
| 05-May | 01:30AM | n/a | 290° | 6 kt | Missing | 12° | 53° | 11° | 51° | 94% | 1022 mb | -31 ft | |||
| 05-May | 12:30AM | n/a | 280° | 7 kt | Missing | 12° | 53° | 10° | 50° | 88% | 1022 mb | -31 ft | |||
| 04-May | 11:30PM | n/a | 290° | 9 kt | Missing | 12° | 53° | 10° | 50° | 88% | 1022 mb | -31 ft | |||
| 04-May | 10:30PM | n/a | 280° | 7 kt | Missing | 12° | 53° | 10° | 50° | 88% | 1022 mb | -31 ft |
Login
| Your browser is unsupported. upgrade your browser |
